Kenema Airport

Jump to: basic info | weather | comments

Related pages: nearby airports | nearby navaids | notams | map

Basic information (top)

Codes: KEN GFKE
Location: lon 7.891290, lat -11.176600, elev 485 ft / 148 m msl
Status: medium_airport
Scheduled airline service: yes
Links: Wikipedia Mobile

Weather (top)

Current conditions for Roberts International Airport 111nm (205km) SSE (rec'd 2014/10/26 09:00Z):

GLRB 260900Z 00000KT 9999 BKN013 27/25 Q1014 NOSIG

Airport forecast for Roberts International Airport 111nm (205km) SSE (rec'd 2014/10/26 06:21Z):

TAF GLRB 260400Z 2606/2712 23010KT 9999 BKN017 FEW024 CB 
      BECMG 2606/2608 03004KT 6000 BKN011 
     FM261000 22008KT 9999 BKN017 
      TEMPO 2616/2620 07006KT 8000 SHRA/TSRA BKN012 FEW023CB

Latest comments (top)

No comments yet for Kenema Airport

More... (top)

See also NOTAMs and nearby airports and navaids, or visit the Kenema Airport page at the main OurAirports website..